sensor_id;sensor_type;location;lat;lon;timestamp;pressure;altitude;pressure_sealevel;temperature;humidity
51617;BME280;37697;52.588;13.394;2023-01-30T00:04:46;100785.30;;;0.57;84.41
51617;BME280;37697;52.588;13.394;2023-01-30T00:09:48;100761.17;;;0.56;84.36
51617;BME280;37697;52.588;13.394;2023-01-30T00:14:51;100752.33;;;0.56;84.11
51617;BME280;37697;52.588;13.394;2023-01-30T00:19:54;100751.86;;;0.57;84.07
51617;BME280;37697;52.588;13.394;2023-01-30T00:24:56;100744.91;;;0.59;83.94
51617;BME280;37697;52.588;13.394;2023-01-30T00:29:59;100726.29;;;0.60;84.03
51617;BME280;37697;52.588;13.394;2023-01-30T00:35:23;100691.40;;;0.61;83.88
51617;BME280;37697;52.588;13.394;2023-01-30T00:40:30;100666.08;;;0.61;83.70
51617;BME280;37697;52.588;13.394;2023-01-30T00:45:33;100642.63;;;0.60;83.45
51617;BME280;37697;52.588;13.394;2023-01-30T00:50:55;100621.45;;;0.60;83.61
51617;BME280;37697;52.588;13.394;2023-01-30T00:55:57;100613.95;;;0.60;83.23
51617;BME280;37697;52.588;13.394;2023-01-30T01:01:00;100603.51;;;0.61;83.14
51617;BME280;37697;52.588;13.394;2023-01-30T01:06:03;100602.93;;;0.59;83.38
51617;BME280;37697;52.588;13.394;2023-01-30T01:11:05;100591.64;;;0.60;83.45
51617;BME280;37697;52.588;13.394;2023-01-30T01:16:08;100576.70;;;0.62;83.22
51617;BME280;37697;52.588;13.394;2023-01-30T01:21:11;100526.93;;;0.61;83.21
51617;BME280;37697;52.588;13.394;2023-01-30T01:26:14;100529.14;;;0.61;82.98
51617;BME280;37697;52.588;13.394;2023-01-30T01:31:17;100520.70;;;0.59;83.25
51617;BME280;37697;52.588;13.394;2023-01-30T01:36:20;100516.73;;;0.57;83.16
51617;BME280;37697;52.588;13.394;2023-01-30T01:41:42;100515.36;;;0.57;82.90
51617;BME280;37697;52.588;13.394;2023-01-30T01:46:55;100535.58;;;0.57;83.05
51617;BME280;37697;52.588;13.394;2023-01-30T01:52:20;100527.94;;;0.57;83.10
51617;BME280;37697;52.588;13.394;2023-01-30T01:57:33;100519.81;;;0.57;83.16
51617;BME280;37697;52.588;13.394;2023-01-30T02:02:39;100494.58;;;0.55;83.13
51617;BME280;37697;52.588;13.394;2023-01-30T02:07:56;100468.34;;;0.50;83.33
51617;BME280;37697;52.588;13.394;2023-01-30T02:13:02;100453.14;;;0.42;83.78
51617;BME280;37697;52.588;13.394;2023-01-30T02:18:05;100438.92;;;0.35;84.28
51617;BME280;37697;52.588;13.394;2023-01-30T02:28:51;100395.30;;;0.28;85.46
51617;BME280;37697;52.588;13.394;2023-01-30T02:45:15;100375.90;;;0.23;86.57
51617;BME280;37697;52.588;13.394;2023-01-30T02:50:29;100358.48;;;0.17;87.15
51617;BME280;37697;52.588;13.394;2023-01-30T02:55:32;100338.09;;;0.16;87.83
51617;BME280;37697;52.588;13.394;2023-01-30T03:00:53;100327.47;;;0.19;87.83
51617;BME280;37697;52.588;13.394;2023-01-30T03:11:52;100300.27;;;0.26;88.43
51617;BME280;37697;52.588;13.394;2023-01-30T03:17:02;100292.02;;;0.30;88.34
51617;BME280;37697;52.588;13.394;2023-01-30T03:22:07;100280.17;;;0.35;88.36
51617;BME280;37697;52.588;13.394;2023-01-30T03:27:11;100273.48;;;0.41;88.30
51617;BME280;37697;52.588;13.394;2023-01-30T03:32:14;100267.09;;;0.45;88.33
51617;BME280;37697;52.588;13.394;2023-01-30T03:37:17;100267.63;;;0.51;88.36
51617;BME280;37697;52.588;13.394;2023-01-30T03:42:20;100265.60;;;0.57;88.39
51617;BME280;37697;52.588;13.394;2023-01-30T03:47:23;100250.83;;;0.63;88.26
51617;BME280;37697;52.588;13.394;2023-01-30T03:52:25;100245.14;;;0.67;88.41
51617;BME280;37697;52.588;13.394;2023-01-30T03:57:28;100227.48;;;0.71;88.83
51617;BME280;37697;52.588;13.394;2023-01-30T04:02:31;100218.46;;;0.75;88.78
51617;BME280;37697;52.588;13.394;2023-01-30T04:07:35;100207.21;;;0.77;88.68
51617;BME280;37697;52.588;13.394;2023-01-30T04:12:37;100197.34;;;0.81;88.97
51617;BME280;37697;52.588;13.394;2023-01-30T04:17:42;100183.08;;;0.85;89.00
51617;BME280;37697;52.588;13.394;2023-01-30T04:22:44;100182.21;;;0.89;88.89
51617;BME280;37697;52.588;13.394;2023-01-30T04:27:47;100181.29;;;0.93;88.91
51617;BME280;37697;52.588;13.394;2023-01-30T04:32:50;100170.00;;;0.97;88.69
51617;BME280;37697;52.588;13.394;2023-01-30T04:37:52;100160.44;;;1.00;88.54
51617;BME280;37697;52.588;13.394;2023-01-30T04:42:55;100156.42;;;1.05;88.58
51617;BME280;37697;52.588;13.394;2023-01-30T04:47:57;100162.42;;;1.08;88.62
51617;BME280;37697;52.588;13.394;2023-01-30T04:53:00;100146.48;;;1.08;88.82
51617;BME280;37697;52.588;13.394;2023-01-30T04:58:03;100144.95;;;1.08;89.00
51617;BME280;37697;52.588;13.394;2023-01-30T05:03:05;100133.35;;;1.05;89.56
51617;BME280;37697;52.588;13.394;2023-01-30T05:08:08;100125.39;;;0.99;89.71
51617;BME280;37697;52.588;13.394;2023-01-30T05:13:11;100119.95;;;0.94;90.20
51617;BME280;37697;52.588;13.394;2023-01-30T05:18:13;100111.67;;;0.90;90.78
51617;BME280;37697;52.588;13.394;2023-01-30T05:23:16;100107.89;;;0.86;91.27
51617;BME280;37697;52.588;13.394;2023-01-30T05:28:18;100093.77;;;0.85;92.00
51617;BME280;37697;52.588;13.394;2023-01-30T05:33:21;100081.04;;;0.85;91.80
51617;BME280;37697;52.588;13.394;2023-01-30T05:38:25;100076.70;;;0.84;92.56
51617;BME280;37697;52.588;13.394;2023-01-30T05:43:29;100065.48;;;0.85;92.63
51617;BME280;37697;52.588;13.394;2023-01-30T05:48:32;100056.65;;;0.87;92.67
51617;BME280;37697;52.588;13.394;2023-01-30T05:53:35;100032.27;;;0.88;92.98
51617;BME280;37697;52.588;13.394;2023-01-30T05:58:38;100030.00;;;0.90;93.64
51617;BME280;37697;52.588;13.394;2023-01-30T06:03:41;100031.33;;;0.93;94.11
51617;BME280;37697;52.588;13.394;2023-01-30T06:08:44;100029.31;;;0.96;94.11
51617;BME280;37697;52.588;13.394;2023-01-30T06:13:47;100032.38;;;1.00;94.30
51617;BME280;37697;52.588;13.394;2023-01-30T06:18:50;100030.25;;;1.05;94.62
51617;BME280;37697;52.588;13.394;2023-01-30T06:23:53;100031.05;;;1.10;95.02
51617;BME280;37697;52.588;13.394;2023-01-30T06:28:55;100025.52;;;1.15;95.32
51617;BME280;37697;52.588;13.394;2023-01-30T06:33:58;100023.31;;;1.18;95.17
51617;BME280;37697;52.588;13.394;2023-01-30T06:39:01;100024.98;;;1.22;95.50
51617;BME280;37697;52.588;13.394;2023-01-30T06:44:03;100029.65;;;1.29;96.04
51617;BME280;37697;52.588;13.394;2023-01-30T06:49:06;100024.52;;;1.35;96.08
51617;BME280;37697;52.588;13.394;2023-01-30T06:54:09;100017.38;;;1.42;96.39
51617;BME280;37697;52.588;13.394;2023-01-30T06:59:12;100005.04;;;1.47;96.24
51617;BME280;37697;52.588;13.394;2023-01-30T07:04:14;99995.64;;;1.54;96.47
51617;BME280;37697;52.588;13.394;2023-01-30T07:09:18;99996.98;;;1.60;96.78
51617;BME280;37697;52.588;13.394;2023-01-30T07:14:20;99996.64;;;1.67;96.96
51617;BME280;37697;52.588;13.394;2023-01-30T07:19:23;99992.63;;;1.75;97.43
51617;BME280;37697;52.588;13.394;2023-01-30T07:24:26;99993.58;;;1.81;97.25
51617;BME280;37697;52.588;13.394;2023-01-30T07:29:28;99988.83;;;1.87;97.38
51617;BME280;37697;52.588;13.394;2023-01-30T07:34:32;99983.05;;;1.95;97.78
51617;BME280;37697;52.588;13.394;2023-01-30T07:39:35;99988.80;;;2.02;98.13
51617;BME280;37697;52.588;13.394;2023-01-30T07:44:37;99991.70;;;2.07;98.56
51617;BME280;37697;52.588;13.394;2023-01-30T07:49:40;99997.16;;;2.15;98.79
51617;BME280;37697;52.588;13.394;2023-01-30T07:54:43;100004.26;;;2.21;98.64
51617;BME280;37697;52.588;13.394;2023-01-30T07:59:45;100009.65;;;2.25;98.96
51617;BME280;37697;52.588;13.394;2023-01-30T08:04:48;100013.64;;;2.31;99.09
51617;BME280;37697;52.588;13.394;2023-01-30T08:09:51;100017.67;;;2.34;98.81
51617;BME280;37697;52.588;13.394;2023-01-30T08:14:54;100014.20;;;2.37;99.02
51617;BME280;37697;52.588;13.394;2023-01-30T08:19:57;100005.63;;;2.39;99.08
51617;BME280;37697;52.588;13.394;2023-01-30T08:24:59;99998.29;;;2.42;99.57
51617;BME280;37697;52.588;13.394;2023-01-30T08:30:02;99987.33;;;2.47;99.71
51617;BME280;37697;52.588;13.394;2023-01-30T08:35:06;99989.89;;;2.50;99.81
51617;BME280;37697;52.588;13.394;2023-01-30T08:40:10;99994.95;;;2.54;99.56
51617;BME280;37697;52.588;13.394;2023-01-30T08:45:13;99996.22;;;2.57;99.73
51617;BME280;37697;52.588;13.394;2023-01-30T08:50:16;99999.70;;;2.60;99.79
51617;BME280;37697;52.588;13.394;2023-01-30T08:55:20;99994.55;;;2.63;99.89
51617;BME280;37697;52.588;13.394;2023-01-30T09:00:23;99995.31;;;2.66;99.98
51617;BME280;37697;52.588;13.394;2023-01-30T09:05:26;99996.96;;;2.72;99.98
51617;BME280;37697;52.588;13.394;2023-01-30T09:10:29;99997.14;;;2.78;100.00
51617;BME280;37697;52.588;13.394;2023-01-30T09:15:32;100000.67;;;2.85;99.98
51617;BME280;37697;52.588;13.394;2023-01-30T09:20:35;100000.42;;;2.97;99.91
51617;BME280;37697;52.588;13.394;2023-01-30T09:25:38;100004.02;;;3.18;99.98
51617;BME280;37697;52.588;13.394;2023-01-30T09:30:41;100001.95;;;3.33;100.00
51617;BME280;37697;52.588;13.394;2023-01-30T09:35:48;100004.13;;;3.41;99.87
51617;BME280;37697;52.588;13.394;2023-01-30T09:41:13;100003.80;;;3.46;99.82
51617;BME280;37697;52.588;13.394;2023-01-30T09:46:47;100002.33;;;3.49;99.39
51617;BME280;37697;52.588;13.394;2023-01-30T10:02:38;100000.45;;;3.65;99.20
51617;BME280;37697;52.588;13.394;2023-01-30T10:08:13;100002.31;;;3.65;99.12
51617;BME280;37697;52.588;13.394;2023-01-30T10:18:54;99987.52;;;3.76;98.65
51617;BME280;37697;52.588;13.394;2023-01-30T10:24:28;99986.92;;;3.89;97.95
51617;BME280;37697;52.588;13.394;2023-01-30T10:29:39;99988.77;;;4.13;97.61
51617;BME280;37697;52.588;13.394;2023-01-30T10:34:47;99987.25;;;4.25;96.83
51617;BME280;37697;52.588;13.394;2023-01-30T10:40:51;99986.23;;;4.29;95.90
51617;BME280;37697;52.588;13.394;2023-01-30T10:45:58;99983.08;;;4.32;94.79
51617;BME280;37697;52.588;13.394;2023-01-30T11:01:43;99971.68;;;4.30;92.73
51617;BME280;37697;52.588;13.394;2023-01-30T11:06:47;99961.05;;;4.29;92.15
51617;BME280;37697;52.588;13.394;2023-01-30T11:11:51;99951.11;;;4.32;91.50
51617;BME280;37697;52.588;13.394;2023-01-30T11:16:56;99938.92;;;4.37;90.98
51617;BME280;37697;52.588;13.394;2023-01-30T11:22:03;99928.33;;;4.50;91.06
51617;BME280;37697;52.588;13.394;2023-01-30T11:27:30;99908.84;;;4.67;89.98
51617;BME280;37697;52.588;13.394;2023-01-30T11:32:33;99906.34;;;4.74;89.05
51617;BME280;37697;52.588;13.394;2023-01-30T11:37:38;99897.80;;;4.76;88.54
51617;BME280;37697;52.588;13.394;2023-01-30T11:42:44;99890.69;;;4.73;88.42
51617;BME280;37697;52.588;13.394;2023-01-30T11:47:59;99888.50;;;4.74;88.10
51617;BME280;37697;52.588;13.394;2023-01-30T11:58:38;99888.61;;;4.88;87.24
51617;BME280;37697;52.588;13.394;2023-01-30T12:03:50;99894.52;;;4.79;86.39
51617;BME280;37697;52.588;13.394;2023-01-30T12:08:55;99891.83;;;4.67;86.82
51617;BME280;37697;52.588;13.394;2023-01-30T12:14:33;99888.97;;;4.47;86.50
51617;BME280;37697;52.588;13.394;2023-01-30T12:25:00;99872.38;;;4.85;86.62
51617;BME280;37697;52.588;13.394;2023-01-30T12:35:38;99845.35;;;4.80;86.37
51617;BME280;37697;52.588;13.394;2023-01-30T12:40:50;99830.65;;;4.77;86.19
51617;BME280;37697;52.588;13.394;2023-01-30T12:46:22;99818.54;;;4.82;86.44
51617;BME280;37697;52.588;13.394;2023-01-30T12:51:42;99816.77;;;4.86;85.40
51617;BME280;37697;52.588;13.394;2023-01-30T12:57:03;99815.20;;;4.94;85.28
51617;BME280;37697;52.588;13.394;2023-01-30T13:07:44;99811.56;;;5.03;84.06
51617;BME280;37697;52.588;13.394;2023-01-30T13:13:21;99815.80;;;5.01;84.23
51617;BME280;37697;52.588;13.394;2023-01-30T13:18:46;99816.37;;;4.98;83.47
51617;BME280;37697;52.588;13.394;2023-01-30T13:29:36;99803.84;;;4.96;82.85
51617;BME280;37697;52.588;13.394;2023-01-30T13:34:43;99800.20;;;4.99;82.50
51617;BME280;37697;52.588;13.394;2023-01-30T13:39:56;99785.16;;;4.97;81.87
51617;BME280;37697;52.588;13.394;2023-01-30T13:45:01;99783.35;;;4.98;82.06
51617;BME280;37697;52.588;13.394;2023-01-30T13:55:36;99808.71;;;4.77;82.02
51617;BME280;37697;52.588;13.394;2023-01-30T14:00:53;99827.02;;;4.59;82.63
51617;BME280;37697;52.588;13.394;2023-01-30T14:11:01;99836.40;;;4.15;83.27
51617;BME280;37697;52.588;13.394;2023-01-30T14:16:04;99858.96;;;3.99;84.15
51617;BME280;37697;52.588;13.394;2023-01-30T14:21:21;99860.48;;;3.88;84.51
51617;BME280;37697;52.588;13.394;2023-01-30T14:31:55;99887.34;;;3.63;85.35
51617;BME280;37697;52.588;13.394;2023-01-30T14:36:58;99912.08;;;3.60;85.92
51617;BME280;37697;52.588;13.394;2023-01-30T14:42:28;99926.27;;;3.64;85.74
51617;BME280;37697;52.588;13.394;2023-01-30T14:47:32;99940.00;;;3.65;86.00
51617;BME280;37697;52.588;13.394;2023-01-30T14:52:53;99938.26;;;3.62;85.89
51617;BME280;37697;52.588;13.394;2023-01-30T14:57:59;99929.23;;;3.61;85.57
51617;BME280;37697;52.588;13.394;2023-01-30T15:03:17;99939.52;;;3.59;85.85
51617;BME280;37697;52.588;13.394;2023-01-30T15:08:24;99947.03;;;3.56;85.99
51617;BME280;37697;52.588;13.394;2023-01-30T15:19:10;99945.59;;;3.46;86.17
51617;BME280;37697;52.588;13.394;2023-01-30T15:30:15;99953.83;;;3.30;86.49
51617;BME280;37697;52.588;13.394;2023-01-30T15:35:23;99966.02;;;3.24;86.69
51617;BME280;37697;52.588;13.394;2023-01-30T15:40:29;99970.98;;;3.23;86.85
51617;BME280;37697;52.588;13.394;2023-01-30T15:46:07;99972.02;;;3.22;86.63
51617;BME280;37697;52.588;13.394;2023-01-30T15:51:14;99986.88;;;3.18;86.70
51617;BME280;37697;52.588;13.394;2023-01-30T15:56:23;99996.13;;;3.16;87.03
51617;BME280;37697;52.588;13.394;2023-01-30T16:01:26;99994.17;;;3.13;86.81
51617;BME280;37697;52.588;13.394;2023-01-30T16:06:33;100004.77;;;3.06;86.69
51617;BME280;37697;52.588;13.394;2023-01-30T16:11:38;100013.98;;;3.04;86.70
51617;BME280;37697;52.588;13.394;2023-01-30T16:16:58;100015.92;;;3.03;86.93
51617;BME280;37697;52.588;13.394;2023-01-30T16:22:09;100038.35;;;3.02;87.57
51617;BME280;37697;52.588;13.394;2023-01-30T16:27:29;100048.58;;;2.99;87.82
51617;BME280;37697;52.588;13.394;2023-01-30T16:32:35;100059.27;;;2.95;88.53
51617;BME280;37697;52.588;13.394;2023-01-30T16:37:37;100057.53;;;2.92;89.29
51617;BME280;37697;52.588;13.394;2023-01-30T16:42:40;100070.98;;;2.90;89.44
51617;BME280;37697;52.588;13.394;2023-01-30T16:47:44;100074.19;;;2.89;89.85
51617;BME280;37697;52.588;13.394;2023-01-30T16:52:50;100074.94;;;2.87;90.08
51617;BME280;37697;52.588;13.394;2023-01-30T16:57:56;100082.39;;;2.85;90.69
51617;BME280;37697;52.588;13.394;2023-01-30T17:03:24;100098.86;;;2.87;91.16
51617;BME280;37697;52.588;13.394;2023-01-30T17:13:41;100128.79;;;2.90;91.82
51617;BME280;37697;52.588;13.394;2023-01-30T17:18:49;100150.73;;;2.94;91.68
51617;BME280;37697;52.588;13.394;2023-01-30T17:23:56;100156.19;;;3.00;92.15
51617;BME280;37697;52.588;13.394;2023-01-30T17:29:00;100159.42;;;3.04;91.82
51617;BME280;37697;52.588;13.394;2023-01-30T17:34:02;100174.50;;;3.08;91.71
51617;BME280;37697;52.588;13.394;2023-01-30T17:39:10;100176.85;;;3.11;92.03
51617;BME280;37697;52.588;13.394;2023-01-30T17:44:14;100186.64;;;3.12;91.71
51617;BME280;37697;52.588;13.394;2023-01-30T17:49:19;100202.65;;;3.13;92.33
51617;BME280;37697;52.588;13.394;2023-01-30T17:54:22;100206.76;;;3.18;92.01
51617;BME280;37697;52.588;13.394;2023-01-30T17:59:26;100210.15;;;3.23;91.93
51617;BME280;37697;52.588;13.394;2023-01-30T18:04:29;100221.42;;;3.27;91.79
51617;BME280;37697;52.588;13.394;2023-01-30T18:09:32;100229.12;;;3.34;91.97
51617;BME280;37697;52.588;13.394;2023-01-30T18:14:35;100239.75;;;3.39;91.50
51617;BME280;37697;52.588;13.394;2023-01-30T18:19:38;100258.84;;;3.46;91.54
51617;BME280;37697;52.588;13.394;2023-01-30T18:24:40;100269.14;;;3.54;90.80
51617;BME280;37697;52.588;13.394;2023-01-30T18:29:43;100281.43;;;3.63;90.63
51617;BME280;37697;52.588;13.394;2023-01-30T18:34:46;100280.35;;;3.68;90.19
51617;BME280;37697;52.588;13.394;2023-01-30T18:39:48;100302.80;;;3.73;89.36
51617;BME280;37697;52.588;13.394;2023-01-30T18:44:51;100313.02;;;3.83;88.32
51617;BME280;37697;52.588;13.394;2023-01-30T18:49:54;100322.63;;;3.87;88.21
51617;BME280;37697;52.588;13.394;2023-01-30T18:54:57;100329.89;;;3.90;87.54
51617;BME280;37697;52.588;13.394;2023-01-30T19:00:00;100348.69;;;3.92;87.15
51617;BME280;37697;52.588;13.394;2023-01-30T19:05:03;100357.30;;;3.94;86.83
51617;BME280;37697;52.588;13.394;2023-01-30T19:10:06;100361.55;;;3.98;85.89
51617;BME280;37697;52.588;13.394;2023-01-30T19:15:09;100373.89;;;4.02;85.41
51617;BME280;37697;52.588;13.394;2023-01-30T19:20:12;100386.92;;;4.06;84.78
51617;BME280;37697;52.588;13.394;2023-01-30T19:25:15;100395.42;;;4.06;84.23
51617;BME280;37697;52.588;13.394;2023-01-30T19:30:17;100408.02;;;4.06;83.96
51617;BME280;37697;52.588;13.394;2023-01-30T19:35:21;100419.75;;;4.08;82.85
51617;BME280;37697;52.588;13.394;2023-01-30T19:40:23;100433.98;;;4.08;82.71
51617;BME280;37697;52.588;13.394;2023-01-30T19:45:27;100430.80;;;4.06;82.48
51617;BME280;37697;52.588;13.394;2023-01-30T19:50:30;100440.76;;;4.02;81.44
51617;BME280;37697;52.588;13.394;2023-01-30T19:55:33;100444.56;;;4.00;81.55
51617;BME280;37697;52.588;13.394;2023-01-30T20:00:39;100444.55;;;3.95;81.12
51617;BME280;37697;52.588;13.394;2023-01-30T20:05:42;100462.02;;;3.88;81.42
51617;BME280;37697;52.588;13.394;2023-01-30T20:10:45;100475.43;;;3.82;81.03
51617;BME280;37697;52.588;13.394;2023-01-30T20:15:48;100488.50;;;3.77;81.43
51617;BME280;37697;52.588;13.394;2023-01-30T20:20:50;100498.88;;;3.73;81.61
51617;BME280;37697;52.588;13.394;2023-01-30T20:25:53;100500.80;;;3.68;81.66
51617;BME280;37697;52.588;13.394;2023-01-30T20:30:56;100515.23;;;3.67;81.43
51617;BME280;37697;52.588;13.394;2023-01-30T20:35:59;100520.77;;;3.72;81.27
51617;BME280;37697;52.588;13.394;2023-01-30T20:41:05;100519.66;;;3.77;81.12
51617;BME280;37697;52.588;13.394;2023-01-30T20:46:11;100530.45;;;3.79;80.68
51617;BME280;37697;52.588;13.394;2023-01-30T20:51:19;100539.53;;;3.77;80.39
51617;BME280;37697;52.588;13.394;2023-01-30T20:56:23;100542.83;;;3.71;80.01
51617;BME280;37697;52.588;13.394;2023-01-30T21:01:27;100559.80;;;3.69;78.99
51617;BME280;37697;52.588;13.394;2023-01-30T21:06:31;100566.39;;;3.69;78.78
51617;BME280;37697;52.588;13.394;2023-01-30T21:11:47;100582.89;;;3.68;78.41
51617;BME280;37697;52.588;13.394;2023-01-30T21:16:50;100597.59;;;3.67;78.73
51617;BME280;37697;52.588;13.394;2023-01-30T21:21:53;100603.36;;;3.67;78.38
51617;BME280;37697;52.588;13.394;2023-01-30T21:26:57;100609.41;;;3.66;77.99
51617;BME280;37697;52.588;13.394;2023-01-30T21:31:59;100617.73;;;3.65;78.13
51617;BME280;37697;52.588;13.394;2023-01-30T21:37:02;100616.38;;;3.59;77.82
51617;BME280;37697;52.588;13.394;2023-01-30T21:42:24;100631.50;;;3.57;77.96
51617;BME280;37697;52.588;13.394;2023-01-30T21:47:50;100651.92;;;3.57;78.10
51617;BME280;37697;52.588;13.394;2023-01-30T21:52:53;100656.33;;;3.54;78.09
51617;BME280;37697;52.588;13.394;2023-01-30T21:57:56;100669.70;;;3.53;77.44
51617;BME280;37697;52.588;13.394;2023-01-30T22:02:58;100682.23;;;3.52;77.48
51617;BME280;37697;52.588;13.394;2023-01-30T22:08:02;100682.89;;;3.48;77.37
51617;BME280;37697;52.588;13.394;2023-01-30T22:13:04;100691.07;;;3.45;77.54
51617;BME280;37697;52.588;13.394;2023-01-30T22:18:07;100703.11;;;3.34;77.54
51617;BME280;37697;52.588;13.394;2023-01-30T22:23:10;100721.80;;;3.22;77.61
51617;BME280;37697;52.588;13.394;2023-01-30T22:28:13;100724.63;;;3.16;77.68
51617;BME280;37697;52.588;13.394;2023-01-30T22:33:16;100727.69;;;3.08;77.69
51617;BME280;37697;52.588;13.394;2023-01-30T22:38:19;100736.77;;;2.98;77.69
51617;BME280;37697;52.588;13.394;2023-01-30T22:43:22;100744.73;;;2.87;77.41
51617;BME280;37697;52.588;13.394;2023-01-30T22:48:24;100750.40;;;2.80;77.63
51617;BME280;37697;52.588;13.394;2023-01-30T22:53:35;100754.95;;;2.71;77.77
51617;BME280;37697;52.588;13.394;2023-01-30T22:58:38;100755.85;;;2.61;77.71
51617;BME280;37697;52.588;13.394;2023-01-30T23:03:43;100759.77;;;2.51;77.99
51617;BME280;37697;52.588;13.394;2023-01-30T23:08:47;100765.77;;;2.41;78.33
51617;BME280;37697;52.588;13.394;2023-01-30T23:13:52;100760.75;;;2.33;78.29
51617;BME280;37697;52.588;13.394;2023-01-30T23:18:55;100769.95;;;2.27;78.51
51617;BME280;37697;52.588;13.394;2023-01-30T23:23:59;100775.02;;;2.21;78.59
51617;BME280;37697;52.588;13.394;2023-01-30T23:29:05;100776.96;;;2.14;78.65
51617;BME280;37697;52.588;13.394;2023-01-30T23:34:16;100789.20;;;2.08;78.88
51617;BME280;37697;52.588;13.394;2023-01-30T23:39:19;100798.11;;;2.02;78.80
51617;BME280;37697;52.588;13.394;2023-01-30T23:44:22;100794.98;;;1.97;79.06
51617;BME280;37697;52.588;13.394;2023-01-30T23:49:24;100797.67;;;1.92;79.01
51617;BME280;37697;52.588;13.394;2023-01-30T23:54:27;100794.91;;;1.87;79.21
51617;BME280;37697;52.588;13.394;2023-01-30T23:59:30;100791.17;;;1.82;79.25
